Mariinsk, Russia
Current Conditions -  °F | °C
As of 12:00 AM on Friday 24 Oct 2014 (Local Time) from UNEE Reporting Station
Smoke Smoke  
Wind Chill: 28°   Ceiling: 1000
Heat Index: 34°   Visibility: 3mi
Dew Point: 34°   Wind: 7mph
Humidity: 100%   Direction: 30°NNE
Pressure: 29.83"   Gusts: NA
Location:  56.21°N, 87.75°E
Report Text: UNEE 231700Z 03003MPS 5000 FU OVC010CB 01/01 Q1010 NOSIGRMK QFE734 23150055
Loading
Personal Weather Stations






























Interactive Weather Map
Tropical Storm Tracking
New forecast layout! Learn more

10-Day Weather Forecast

Advertisements
Track Severe Weather on mobile